Time;durP1;ratioP1;P1;durP2;ratioP2;P2;SDS_P1;SDS_P2;PMS_P1;PMS_P2;Temp;Humidity;BMP_temperature;BMP_pressure;BME280_temperature;BME280_humidity;BME280_pressure;Samples;Min_cycle;Max_cycle;Signal;HPM_P1;HPM_P2
2023/01/15 00:01:57;;;;;;;6.60;3.10;;;;;;;5.83;72.72;97586.70;106596;1254;61246;-79
2023/01/15 00:04:23;;;;;;;6.40;2.20;;;;;;;5.85;72.21;97587.34;106603;1254;61230;-77
2023/01/15 00:06:49;;;;;;;2.50;1.10;;;;;;;5.89;71.68;97590.61;106570;1254;61355;-79
2023/01/15 00:09:16;;;;;;;3.80;1.90;;;;;;;5.94;70.69;97587.91;106627;1254;61352;-77
2023/01/15 00:11:42;;;;;;;7.00;1.60;;;;;;;6.00;71.21;97587.89;106648;1254;61234;-77
2023/01/15 00:14:09;;;;;;;3.30;1.50;;;;;;;6.03;71.22;97581.51;106585;1256;61352;-77
2023/01/15 00:16:35;;;;;;;2.90;2.10;;;;;;;6.04;71.76;97582.27;106566;1254;61326;-76
2023/01/15 00:19:03;;;;;;;6.00;3.10;;;;;;;6.05;71.32;97577.37;106575;1254;61787;-77
2023/01/15 00:21:29;;;;;;;3.20;1.90;;;;;;;6.07;72.29;97569.96;106583;1254;61310;-78
2023/01/15 00:29:26;;;;;;;3.70;1.80;;;;;;;6.24;68.41;97568.48;106614;1254;73032;-77
2023/01/15 00:31:56;;;;;;;3.10;1.60;;;;;;;6.27;68.48;97573.55;106609;1251;59948;-79
2023/01/15 00:34:23;;;;;;;2.60;1.60;;;;;;;6.26;68.65;97576.40;106520;1257;60315;-79
2023/01/15 00:36:50;;;;;;;2.00;1.60;;;;;;;6.29;68.02;97572.42;106614;1254;74561;-79
2023/01/15 00:39:16;;;;;;;6.60;4.30;;;;;;;6.28;68.92;97567.64;106632;1254;59831;-77
2023/01/15 00:41:42;;;;;;;7.00;2.90;;;;;;;6.28;68.09;97559.14;106552;1253;59927;-79
2023/01/15 00:44:09;;;;;;;3.30;1.90;;;;;;;6.30;67.61;97551.27;106572;1253;59971;-79
2023/01/15 00:46:36;;;;;;;6.70;2.90;;;;;;;6.31;68.13;97556.39;106552;1254;61343;-79
2023/01/15 00:49:03;;;;;;;8.50;6.60;;;;;;;6.28;68.30;97551.92;106649;1254;74437;-77
2023/01/15 00:51:30;;;;;;;5.80;3.70;;;;;;;6.29;67.83;97547.63;106533;1253;69034;-79
2023/01/15 00:53:56;;;;;;;7.60;3.60;;;;;;;6.30;68.30;97538.64;106552;1254;61189;-77
2023/01/15 00:56:22;;;;;;;12.60;4.70;;;;;;;6.30;68.47;97535.45;106615;1254;61225;-78
2023/01/15 00:58:49;;;;;;;5.50;3.80;;;;;;;6.29;68.35;97525.50;106569;1253;60791;-77
2023/01/15 01:01:15;;;;;;;4.60;2.90;;;;;;;6.31;68.00;97514.90;106477;1257;60721;-77
2023/01/15 01:03:42;;;;;;;4.50;2.00;;;;;;;6.31;68.75;97510.86;106634;1254;60358;-78
2023/01/15 01:06:09;;;;;;;2.80;1.60;;;;;;;6.35;68.33;97504.33;106573;1255;60848;-77
2023/01/15 01:08:35;;;;;;;4.00;2.40;;;;;;;6.38;67.83;97501.48;106624;1254;60803;-77
2023/01/15 01:11:02;;;;;;;3.20;1.70;;;;;;;6.40;67.63;97498.08;106604;1253;59979;-77
2023/01/15 01:13:29;;;;;;;3.70;2.00;;;;;;;6.44;67.48;97493.16;106633;1252;73721;-77
2023/01/15 01:15:55;;;;;;;5.80;1.90;;;;;;;6.51;66.89;97489.34;106629;1255;59920;-77
2023/01/15 01:18:22;;;;;;;4.00;2.00;;;;;;;6.55;66.33;97478.20;106567;1254;62111;-78
2023/01/15 01:20:48;;;;;;;5.00;1.80;;;;;;;6.61;66.01;97470.42;106604;1254;61663;-77
2023/01/15 01:23:14;;;;;;;5.60;2.10;;;;;;;6.60;66.55;97465.67;106602;1253;60269;-79
2023/01/15 01:25:41;;;;;;;4.10;2.10;;;;;;;6.63;65.95;97456.41;106625;1254;60997;-79
2023/01/15 01:28:07;;;;;;;4.20;2.20;;;;;;;6.63;66.36;97454.42;106592;1253;61230;-79
2023/01/15 01:30:34;;;;;;;3.90;2.30;;;;;;;6.60;66.61;97450.98;106569;1253;62126;-79
2023/01/15 01:33:00;;;;;;;5.00;2.30;;;;;;;6.57;67.01;97441.65;106476;1254;59911;-77
2023/01/15 01:35:26;;;;;;;7.30;3.10;;;;;;;6.57;66.81;97436.86;106776;1255;61984;-77
2023/01/15 01:37:53;;;;;;;5.70;2.50;;;;;;;6.57;67.05;97430.02;106594;1254;61939;-79
2023/01/15 01:40:19;;;;;;;4.80;2.30;;;;;;;6.54;67.49;97424.96;106683;1254;61342;-79
2023/01/15 01:42:45;;;;;;;11.20;2.70;;;;;;;6.57;66.96;97414.73;106602;1254;61343;-77
2023/01/15 01:45:16;;;;;;;3.80;2.10;;;;;;;6.58;66.79;97415.12;106628;1254;61381;-77
2023/01/15 01:47:43;;;;;;;7.30;1.80;;;;;;;6.58;66.91;97408.22;106640;1251;60280;-78
2023/01/15 01:50:11;;;;;;;5.40;1.90;;;;;;;6.61;66.73;97408.71;106656;1252;61876;-77
2023/01/15 01:52:58;;;;;;;4.70;2.10;;;;;;;6.60;66.92;97408.98;106581;1254;70078;-77
2023/01/15 01:55:25;;;;;;;5.10;2.60;;;;;;;6.60;66.95;97406.29;106643;1254;72520;-78
2023/01/15 01:57:53;;;;;;;4.30;2.80;;;;;;;6.61;67.17;97402.36;106622;1256;59984;-79
2023/01/15 02:00:19;;;;;;;4.90;2.20;;;;;;;6.61;67.11;97391.91;106745;1254;59999;-78
2023/01/15 02:02:46;;;;;;;2.60;1.40;;;;;;;6.63;67.38;97388.78;106562;1253;74581;-79
2023/01/15 02:05:14;;;;;;;3.60;2.70;;;;;;;6.65;66.96;97385.77;106656;1254;71626;-79
2023/01/15 02:07:41;;;;;;;5.50;2.70;;;;;;;6.64;67.49;97392.77;106515;1254;72554;-77
2023/01/15 02:10:13;;;;;;;6.60;2.70;;;;;;;6.62;67.85;97388.30;106631;1253;61899;-78
2023/01/15 02:12:40;;;;;;;4.30;2.40;;;;;;;6.63;67.37;97392.50;106696;1253;61336;-79
2023/01/15 02:15:13;;;;;;;5.10;1.80;;;;;;;6.66;67.41;97383.71;106519;1252;61333;-77
2023/01/15 02:17:50;;;;;;;4.30;2.40;;;;;;;6.65;67.97;97379.94;106656;1254;70982;-76
2023/01/15 02:20:29;;;;;;;6.10;2.80;;;;;;;6.64;68.36;97378.77;106602;1256;72477;-78
2023/01/15 02:23:33;;;;;;;5.80;2.00;;;;;;;6.62;68.27;97371.98;106621;1256;59849;-77
2023/01/15 02:26:25;;;;;;;3.20;1.90;;;;;;;6.61;68.25;97370.98;106667;1254;59806;-78
2023/01/15 02:28:53;;;;;;;3.30;2.60;;;;;;;6.63;68.26;97361.65;106487;1253;74550;-76
2023/01/15 02:31:31;;;;;;;6.10;5.50;;;;;;;6.63;68.50;97362.29;106624;1254;69366;-77
2023/01/15 02:34:04;;;;;;;3.60;2.20;;;;;;;6.61;68.08;97360.52;106662;1254;72490;-78
2023/01/15 02:36:32;;;;;;;4.60;1.30;;;;;;;6.65;67.92;97358.35;106572;1252;59889;-77
2023/01/15 02:39:01;;;;;;;4.50;1.90;;;;;;;6.69;67.17;97355.52;106774;1253;59810;-78
2023/01/15 02:41:31;;;;;;;4.00;2.30;;;;;;;6.69;67.04;97359.50;106591;1254;74592;-78
2023/01/15 02:43:57;;;;;;;8.80;5.40;;;;;;;6.71;66.86;97360.51;106533;1254;71257;-78
2023/01/15 02:46:26;;;;;;;4.90;2.00;;;;;;;6.81;65.22;97360.08;106473;1254;67967;-77
2023/01/15 02:48:53;;;;;;;3.00;2.20;;;;;;;6.84;65.40;97367.40;106684;1253;61326;-78
2023/01/15 02:51:23;;;;;;;3.70;1.90;;;;;;;6.80;66.09;97358.50;106505;1257;61304;-78
2023/01/15 02:53:51;;;;;;;4.40;2.10;;;;;;;6.76;66.57;97370.25;106555;1253;74540;-78
2023/01/15 02:56:19;;;;;;;5.70;3.90;;;;;;;6.70;66.98;97365.41;106537;1253;72299;-76
2023/01/15 02:58:46;;;;;;;4.20;2.40;;;;;;;6.66;66.66;97363.31;106633;1253;72553;-80
2023/01/15 03:01:18;;;;;;;6.60;3.00;;;;;;;6.62;67.41;97364.82;106530;1253;60911;-78
2023/01/15 03:03:56;;;;;;;5.10;3.10;;;;;;;6.58;67.59;97366.77;106548;1253;60205;-76
2023/01/15 03:06:40;;;;;;;6.20;3.40;;;;;;;6.54;67.88;97368.59;106542;1253;74622;-77
2023/01/15 03:09:07;;;;;;;4.70;2.30;;;;;;;6.50;68.06;97361.88;106496;1253;70330;-78
2023/01/15 03:11:36;;;;;;;3.50;2.30;;;;;;;6.51;68.04;97361.88;106469;1253;62131;-76
2023/01/15 03:14:08;;;;;;;3.90;2.20;;;;;;;6.57;67.10;97361.10;106528;1253;59978;-78
2023/01/15 03:16:39;;;;;;;4.10;2.80;;;;;;;6.62;67.16;97355.67;106579;1253;61066;-76
2023/01/15 03:19:26;;;;;;;3.80;2.60;;;;;;;6.68;66.71;97362.40;106514;1256;74599;-76
2023/01/15 03:22:25;;;;;;;5.60;3.10;;;;;;;6.68;66.79;97364.52;106492;1253;70424;-78
2023/01/15 03:24:53;;;;;;;4.60;2.80;;;;;;;6.69;67.37;97366.11;106355;1253;72433;-78
2023/01/15 03:27:20;;;;;;;4.00;2.40;;;;;;;6.71;66.80;97360.83;106445;1253;62109;-78
2023/01/15 03:29:49;;;;;;;2.70;1.80;;;;;;;6.74;66.21;97350.64;106627;1253;61401;-78
2023/01/15 03:32:16;;;;;;;3.80;1.80;;;;;;;6.85;65.81;97353.83;106559;1253;74599;-77
2023/01/15 03:34:53;;;;;;;6.90;3.50;;;;;;;6.88;65.94;97360.88;106476;1253;71098;-77
2023/01/15 03:37:20;;;;;;;5.80;1.50;;;;;;;6.84;66.71;97356.09;106555;1253;70702;-78
2023/01/15 03:39:46;;;;;;;4.70;3.20;;;;;;;6.86;66.65;97354.90;106611;1256;61350;-76
2023/01/15 03:42:32;;;;;;;3.30;2.10;;;;;;;6.82;67.14;97364.86;106519;1254;61250;-76
2023/01/15 03:45:10;;;;;;;5.40;2.00;;;;;;;6.77;67.51;97374.79;106684;1254;74479;-78
2023/01/15 03:48:07;;;;;;;4.00;2.00;;;;;;;6.75;67.70;97373.60;106663;1254;71185;-77
2023/01/15 03:50:36;;;;;;;2.90;2.10;;;;;;;6.71;68.85;97378.12;106517;1254;72481;-78
2023/01/15 03:53:14;;;;;;;5.10;2.70;;;;;;;6.65;69.37;97382.96;106630;1254;60838;-77
2023/01/15 03:55:54;;;;;;;4.10;2.20;;;;;;;6.53;69.12;97376.62;106682;1253;60842;-76
2023/01/15 03:58:29;;;;;;;3.80;1.60;;;;;;;6.48;69.09;97375.36;106498;1253;74519;-78
2023/01/15 04:00:58;;;;;;;4.50;2.90;;;;;;;6.45;69.28;97370.59;106713;1254;69865;-77
2023/01/15 04:03:25;;;;;;;5.40;3.70;;;;;;;6.45;69.60;97360.46;106672;1252;71371;-78
2023/01/15 04:05:52;;;;;;;5.80;2.80;;;;;;;6.42;70.20;97356.86;106642;1253;60775;-78
2023/01/15 04:08:19;;;;;;;7.00;4.30;;;;;;;6.38;70.68;97353.35;106741;1252;60803;-77
2023/01/15 04:10:53;;;;;;;5.30;3.00;;;;;;;6.32;70.76;97346.47;106539;1254;60940;-78
2023/01/15 04:13:19;;;;;;;9.80;5.20;;;;;;;6.25;71.29;97348.61;106712;1254;70907;-76
2023/01/15 04:15:46;;;;;;;3.60;2.30;;;;;;;6.15;71.36;97336.88;106659;1251;72944;-76
2023/01/15 04:18:12;;;;;;;5.50;2.80;;;;;;;6.09;71.50;97335.53;106630;1254;60920;-77
2023/01/15 04:20:38;;;;;;;4.40;2.80;;;;;;;6.18;71.57;97333.49;106670;1253;60841;-78
2023/01/15 04:23:05;;;;;;;4.60;2.60;;;;;;;6.26;71.51;97334.95;106546;1253;60948;-78
2023/01/15 04:25:31;;;;;;;3.80;2.30;;;;;;;6.41;70.97;97337.91;106675;1254;60292;-77
2023/01/15 04:27:57;;;;;;;4.10;2.20;;;;;;;6.61;69.89;97325.53;106618;1253;60313;-78
2023/01/15 04:30:24;;;;;;;7.00;2.30;;;;;;;6.70;69.94;97324.06;106613;1254;61397;-77
2023/01/15 04:32:50;;;;;;;3.80;2.40;;;;;;;6.76;69.89;97322.05;106661;1252;61346;-77
2023/01/15 04:35:17;;;;;;;7.20;2.90;;;;;;;6.83;69.06;97311.81;106643;1252;61281;-78
2023/01/15 04:37:44;;;;;;;6.00;3.40;;;;;;;6.86;69.27;97303.68;106655;1253;61355;-77
2023/01/15 04:45:55;;;;;;;4.70;2.40;;;;;;;6.83;69.14;97286.82;106678;1254;60248;-79
2023/01/15 04:48:21;;;;;;;7.60;2.60;;;;;;;6.77;69.43;97277.79;106584;1254;74491;-78
2023/01/15 04:50:48;;;;;;;2.30;1.70;;;;;;;6.72;69.76;97276.61;106687;1253;59880;-77
2023/01/15 04:53:14;;;;;;;3.80;2.00;;;;;;;6.70;69.82;97273.55;106493;1252;62123;-78
2023/01/15 04:55:40;;;;;;;10.70;2.40;;;;;;;6.67;70.03;97272.31;106634;1253;61076;-77
2023/01/15 04:58:07;;;;;;;5.10;3.10;;;;;;;6.64;70.24;97263.31;106745;1252;61330;-77
2023/01/15 05:00:33;;;;;;;6.90;3.40;;;;;;;6.62;70.49;97258.05;106728;1254;61348;-76
2023/01/15 05:02:59;;;;;;;3.60;2.60;;;;;;;6.62;70.45;97249.06;106684;1254;60966;-79
2023/01/15 05:05:26;;;;;;;4.60;2.10;;;;;;;6.67;70.16;97244.31;106612;1251;62155;-76
2023/01/15 05:07:52;;;;;;;2.90;1.70;;;;;;;6.76;69.92;97243.65;106469;1253;62209;-78
2023/01/15 05:10:18;;;;;;;4.80;2.10;;;;;;;6.94;69.11;97236.48;106652;1254;60093;-78
2023/01/15 05:12:45;;;;;;;4.00;2.60;;;;;;;6.96;69.34;97230.66;106653;1254;61819;-79
2023/01/15 05:15:11;;;;;;;3.60;1.90;;;;;;;6.98;69.26;97230.96;106641;1254;62109;-77
2023/01/15 05:17:37;;;;;;;4.10;3.10;;;;;;;7.01;69.16;97223.16;106651;1254;59925;-78
2023/01/15 05:20:05;;;;;;;5.70;3.80;;;;;;;7.03;69.17;97228.11;106754;1254;60998;-79
2023/01/15 05:22:31;;;;;;;7.60;4.00;;;;;;;7.06;68.94;97220.27;106517;1253;61234;-78
2023/01/15 05:24:57;;;;;;;6.30;2.60;;;;;;;7.15;68.54;97212.30;106676;1256;60815;-78
2023/01/15 05:27:24;;;;;;;2.90;1.60;;;;;;;7.17;68.50;97203.95;106659;1254;59916;-77
2023/01/15 05:29:50;;;;;;;5.40;1.80;;;;;;;7.23;67.74;97199.08;106663;1253;60856;-79
2023/01/15 05:32:17;;;;;;;3.50;2.40;;;;;;;7.28;67.90;97199.91;106616;1252;61336;-78
2023/01/15 05:34:43;;;;;;;6.50;5.50;;;;;;;7.26;68.12;97194.36;106639;1254;59891;-78
2023/01/15 05:37:09;;;;;;;9.30;5.20;;;;;;;7.30;67.84;97196.23;106681;1253;60809;-77
2023/01/15 05:39:36;;;;;;;6.00;4.30;;;;;;;7.30;67.78;97193.27;106606;1253;61026;-77
2023/01/15 05:42:02;;;;;;;3.90;2.90;;;;;;;7.28;67.83;97189.39;106648;1254;61323;-78
2023/01/15 05:44:29;;;;;;;7.30;2.60;;;;;;;7.29;67.78;97182.75;106616;1252;61220;-78
2023/01/15 05:47:01;;;;;;;5.80;2.90;;;;;;;7.31;67.60;97182.26;106650;1253;61347;-78
2023/01/15 05:49:30;;;;;;;5.40;2.40;;;;;;;7.30;67.59;97176.98;106776;1254;74612;-78
2023/01/15 05:51:57;;;;;;;5.20;2.50;;;;;;;7.33;67.37;97172.11;106727;1253;69757;-78
2023/01/15 05:54:25;;;;;;;4.30;2.80;;;;;;;7.32;67.64;97165.42;106661;1256;72488;-78
2023/01/15 05:56:52;;;;;;;6.50;3.80;;;;;;;7.34;67.50;97163.48;106661;1252;60927;-78
2023/01/15 05:59:19;;;;;;;6.50;3.90;;;;;;;7.33;67.62;97164.94;106662;1254;60923;-79
2023/01/15 06:01:46;;;;;;;14.00;5.60;;;;;;;7.33;67.70;97154.91;106558;1252;74514;-77
2023/01/15 06:04:23;;;;;;;4.70;2.40;;;;;;;7.31;67.78;97165.66;106606;1252;71061;-77
2023/01/15 06:06:51;;;;;;;6.90;4.00;;;;;;;7.34;67.69;97163.11;106632;1253;72787;-78
2023/01/15 06:09:17;;;;;;;4.10;2.20;;;;;;;7.33;67.88;97155.66;106679;1254;61390;-78
2023/01/15 06:11:44;;;;;;;7.90;3.80;;;;;;;7.37;67.58;97156.95;106666;1253;61310;-77
2023/01/15 06:14:11;;;;;;;7.00;2.70;;;;;;;7.45;66.86;97164.05;106613;1253;73929;-77
2023/01/15 06:16:38;;;;;;;6.00;2.80;;;;;;;7.44;67.13;97151.94;106704;1254;71038;-77
2023/01/15 06:19:05;;;;;;;5.90;2.60;;;;;;;7.49;66.83;97148.40;106647;1253;71454;-77
2023/01/15 06:21:32;;;;;;;5.40;2.00;;;;;;;7.47;66.79;97140.81;106645;1251;60675;-76
2023/01/15 06:23:58;;;;;;;6.10;3.20;;;;;;;7.53;66.29;97140.23;106721;1252;62056;-77
2023/01/15 06:26:25;;;;;;;3.70;2.20;;;;;;;7.56;66.22;97147.80;106647;1253;61868;-77
2023/01/15 06:28:51;;;;;;;69.60;35.70;;;;;;;7.56;66.08;97153.14;106944;1253;61869;-77
2023/01/15 06:31:19;;;;;;;5.50;2.10;;;;;;;7.54;65.87;97160.01;106895;1253;61331;-78
2023/01/15 06:33:45;;;;;;;7.30;3.40;;;;;;;7.67;65.23;97151.92;106663;1253;59927;-77
2023/01/15 06:36:20;;;;;;;8.90;4.80;;;;;;;7.60;65.45;97151.98;106654;1253;60146;-78
2023/01/15 06:38:46;;;;;;;2.80;2.10;;;;;;;7.57;66.10;97161.48;107043;1257;74757;-77
2023/01/15 06:49:35;;;;;;;9.00;2.90;;;;;;;7.48;66.46;97165.00;106540;1253;62032;-76
2023/01/15 06:52:01;;;;;;;4.20;2.50;;;;;;;7.50;66.66;97156.36;106629;1253;73432;-77
2023/01/15 06:54:28;;;;;;;8.20;4.70;;;;;;;7.52;66.03;97154.03;106653;1253;70838;-77
2023/01/15 06:56:54;;;;;;;10.40;4.00;;;;;;;7.54;66.00;97158.02;106655;1253;72669;-78
2023/01/15 06:59:21;;;;;;;4.30;2.30;;;;;;;7.54;66.20;97162.11;106563;1254;59871;-78
2023/01/15 07:01:47;;;;;;;10.80;5.20;;;;;;;7.53;66.01;97160.61;106598;1254;117858;-76
2023/01/15 07:04:14;;;;;;;7.60;3.80;;;;;;;7.56;65.57;97158.25;106657;1254;59811;-78
2023/01/15 07:06:40;;;;;;;13.40;6.40;;;;;;;7.58;65.55;97160.95;106687;1254;61880;-77
2023/01/15 07:09:07;;;;;;;15.90;5.70;;;;;;;7.58;65.79;97160.52;106740;1254;61027;-76
2023/01/15 07:11:33;;;;;;;6.40;3.40;;;;;;;7.57;65.81;97159.27;106661;1254;62190;-79
2023/01/15 07:14:05;;;;;;;16.80;6.60;;;;;;;7.62;65.45;97155.05;106678;1254;59908;-78
2023/01/15 07:16:33;;;;;;;13.00;5.60;;;;;;;7.61;65.63;97148.30;106672;1252;73562;-76
2023/01/15 07:18:59;;;;;;;15.80;10.70;;;;;;;7.64;65.10;97140.68;106747;1253;69852;-77
2023/01/15 07:21:26;;;;;;;12.30;7.60;;;;;;;7.70;64.45;97130.71;106492;1254;71487;-77
2023/01/15 07:23:53;;;;;;;22.40;11.40;;;;;;;7.70;64.71;97130.71;106723;1253;61649;-78
2023/01/15 07:26:19;;;;;;;6.50;3.70;;;;;;;7.71;64.41;97124.50;106644;1253;60220;-78
2023/01/15 07:28:46;;;;;;;7.50;5.60;;;;;;;7.80;63.59;97134.79;106594;1254;61177;-78
2023/01/15 07:31:12;;;;;;;10.80;7.20;;;;;;;7.78;64.34;97140.73;106763;1252;61342;-80
2023/01/15 07:33:39;;;;;;;14.20;7.00;;;;;;;7.78;64.34;97139.81;106794;1254;61112;-80
2023/01/15 07:36:05;;;;;;;8.20;4.50;;;;;;;7.81;63.64;97132.45;106653;1254;60760;-77
2023/01/15 07:38:32;;;;;;;8.40;5.40;;;;;;;7.84;63.48;97128.98;106645;1254;61349;-77
2023/01/15 07:51:59;;;;;;;20.80;8.30;;;;;;;8.10;60.71;97125.38;106676;1253;61209;-78
2023/01/15 07:54:28;;;;;;;8.60;5.30;;;;;;;8.12;60.83;97136.06;106653;1253;61090;-77
2023/01/15 07:56:54;;;;;;;6.60;3.80;;;;;;;8.14;61.23;97142.84;106572;1252;69761;-77
2023/01/15 07:59:21;;;;;;;5.20;2.80;;;;;;;8.18;61.18;97139.64;106553;1254;59914;-77
2023/01/15 08:01:47;;;;;;;6.80;3.50;;;;;;;8.29;60.03;97143.11;106518;1253;61253;-77
2023/01/15 08:04:13;;;;;;;3.50;2.30;;;;;;;8.27;60.37;97145.92;106667;1253;60812;-77
2023/01/15 08:06:40;;;;;;;43.50;30.10;;;;;;;8.28;61.59;97146.35;106624;1255;61233;-79
2023/01/15 08:09:06;;;;;;;16.10;10.50;;;;;;;8.25;61.99;97142.17;106633;1256;61269;-77
2023/01/15 08:17:03;;;;;;;5.40;2.50;;;;;;;8.17;63.52;97129.14;106533;1252;61250;-77
2023/01/15 08:19:29;;;;;;;3.60;2.20;;;;;;;8.10;63.46;97123.98;106703;1254;74513;-79
2023/01/15 08:21:56;;;;;;;4.00;2.20;;;;;;;8.07;64.06;97125.86;106656;1254;59914;-79
2023/01/15 08:24:23;;;;;;;6.20;4.90;;;;;;;8.05;63.77;97123.72;106642;1254;62059;-79
2023/01/15 08:26:49;;;;;;;7.00;3.90;;;;;;;8.03;64.11;97122.16;106667;1252;59892;-77
2023/01/15 08:29:15;;;;;;;6.60;4.10;;;;;;;8.02;63.96;97122.34;106505;1254;61813;-79
2023/01/15 08:31:42;;;;;;;9.00;5.20;;;;;;;8.00;63.21;97116.52;106653;1253;61852;-79
2023/01/15 08:34:08;;;;;;;8.20;4.50;;;;;;;8.02;62.97;97111.91;106645;1254;62113;-79
2023/01/15 08:36:35;;;;;;;5.20;2.50;;;;;;;8.05;62.05;97112.92;106649;1253;59936;-77
2023/01/15 08:39:01;;;;;;;9.00;4.40;;;;;;;8.10;62.28;97106.39;106604;1254;61323;-79
2023/01/15 08:41:27;;;;;;;6.60;3.40;;;;;;;8.15;60.65;97113.36;106542;1253;60234;-79
2023/01/15 08:43:54;;;;;;;8.90;5.80;;;;;;;8.19;59.67;97112.01;106555;1254;60799;-79
2023/01/15 08:46:20;;;;;;;8.80;4.30;;;;;;;8.27;58.36;97115.92;106582;1256;61262;-79
2023/01/15 08:48:47;;;;;;;10.90;4.40;;;;;;;8.26;59.49;97113.98;106528;1254;61239;-77
2023/01/15 08:51:13;;;;;;;9.30;5.50;;;;;;;8.25;59.58;97112.13;106591;1254;59822;-77
2023/01/15 08:53:40;;;;;;;8.80;3.80;;;;;;;8.24;59.66;97104.30;106508;1254;62101;-77
2023/01/15 08:56:13;;;;;;;8.40;4.70;;;;;;;8.27;58.47;97103.73;106418;1254;60419;-79
2023/01/15 08:58:40;;;;;;;13.40;6.70;;;;;;;8.26;58.97;97099.48;106672;1254;70019;-79
2023/01/15 09:01:07;;;;;;;5.20;3.40;;;;;;;8.25;59.03;97103.59;106622;1254;59821;-79
2023/01/15 09:03:33;;;;;;;8.10;4.30;;;;;;;8.29;58.40;97107.32;106680;1254;59883;-79
2023/01/15 09:06:00;;;;;;;5.30;2.80;;;;;;;8.29;58.68;97110.93;106620;1254;60964;-77
2023/01/15 09:08:27;;;;;;;9.80;5.90;;;;;;;8.25;59.55;97103.85;106424;1252;59895;-79
2023/01/15 09:10:58;;;;;;;11.50;6.20;;;;;;;8.28;58.02;97090.97;106684;1255;69775;-77
2023/01/15 09:13:25;;;;;;;9.60;4.00;;;;;;;8.34;57.30;97102.85;106569;1254;71361;-77
2023/01/15 09:15:51;;;;;;;10.90;5.40;;;;;;;8.32;56.55;97099.25;106636;1252;59792;-79
2023/01/15 09:18:19;;;;;;;9.00;5.10;;;;;;;8.34;56.23;97106.45;106640;1253;60079;-77
2023/01/15 09:20:46;;;;;;;6.60;3.90;;;;;;;8.33;56.25;97102.42;106602;1254;74479;-77
2023/01/15 09:23:12;;;;;;;22.10;7.20;;;;;;;8.33;55.62;97106.80;106571;1254;70686;-79
2023/01/15 09:25:40;;;;;;;9.20;4.70;;;;;;;8.37;55.29;97103.64;106627;1254;72533;-80
2023/01/15 09:28:07;;;;;;;4.50;2.60;;;;;;;8.37;55.41;97096.40;106705;1254;61956;-77
2023/01/15 09:30:33;;;;;;;7.70;3.80;;;;;;;8.36;55.01;97089.08;106622;1256;60381;-79
2023/01/15 09:32:59;;;;;;;9.80;4.20;;;;;;;8.44;54.31;97085.14;106641;1254;59885;-77
2023/01/15 09:35:26;;;;;;;14.20;7.90;;;;;;;8.38;55.13;97081.66;106636;1254;60161;-77
2023/01/15 09:37:52;;;;;;;9.80;3.60;;;;;;;8.39;54.93;97079.05;106593;1254;59992;-77
2023/01/15 09:40:56;;;;;;;6.30;3.10;;;;;;;8.35;55.10;97078.87;106621;1254;60831;-77
2023/01/15 09:43:46;;;;;;;4.80;3.00;;;;;;;8.32;54.77;97076.62;106585;1254;62027;-79
2023/01/15 09:46:15;;;;;;;8.00;3.60;;;;;;;8.32;55.07;97074.02;106652;1254;74483;-79
2023/01/15 09:49:19;;;;;;;13.90;4.90;;;;;;;8.29;55.23;97076.55;106561;1257;70169;-77
2023/01/15 09:51:56;;;;;;;7.40;3.80;;;;;;;8.24;55.48;97081.95;106638;1254;72503;-78
2023/01/15 09:54:36;;;;;;;4.70;2.60;;;;;;;8.20;55.56;97079.18;106599;1256;60899;-77
2023/01/15 09:57:03;;;;;;;5.10;2.80;;;;;;;8.18;55.40;97072.79;106509;1253;60238;-78
2023/01/15 09:59:38;;;;;;;3.20;2.00;;;;;;;8.13;55.64;97078.73;106533;1254;74901;-77
2023/01/15 10:02:30;;;;;;;6.00;2.20;;;;;;;8.12;55.71;97081.59;106555;1252;70946;-77
2023/01/15 10:05:01;;;;;;;5.40;3.20;;;;;;;8.11;55.60;97086.45;106628;1254;70386;-77
2023/01/15 10:07:59;;;;;;;5.00;3.30;;;;;;;8.06;56.11;97080.09;106541;1254;61996;-78
2023/01/15 10:10:32;;;;;;;3.90;2.00;;;;;;;8.11;55.68;97085.16;106567;1254;59758;-78
2023/01/15 10:13:15;;;;;;;6.90;3.80;;;;;;;8.07;55.98;97076.30;106506;1255;74554;-77
2023/01/15 10:15:45;;;;;;;10.90;4.50;;;;;;;8.09;56.06;97079.57;106609;1256;70232;-76
2023/01/15 10:18:30;;;;;;;6.30;3.20;;;;;;;8.05;56.23;97080.07;106605;1256;72634;-76
2023/01/15 10:21:34;;;;;;;19.10;11.10;;;;;;;8.03;56.79;97079.27;106510;1253;61333;-77
2023/01/15 10:24:19;;;;;;;7.40;3.50;;;;;;;8.01;56.97;97079.06;106559;1254;61152;-79
2023/01/15 10:26:56;;;;;;;5.10;3.00;;;;;;;8.05;56.89;97079.08;106571;1254;74556;-78
2023/01/15 10:29:32;;;;;;;11.80;5.90;;;;;;;7.99;57.61;97076.13;106529;1253;69822;-78
2023/01/15 10:32:20;;;;;;;7.20;3.60;;;;;;;7.99;57.62;97070.73;106698;1254;71172;-79
2023/01/15 10:35:16;;;;;;;4.30;2.20;;;;;;;8.04;57.22;97065.60;106553;1253;59773;-78
2023/01/15 10:37:56;;;;;;;10.40;5.60;;;;;;;7.98;57.34;97065.13;106546;1254;61551;-77
2023/01/15 10:41:01;;;;;;;5.80;2.10;;;;;;;7.98;57.58;97062.43;106628;1253;74549;-77
2023/01/15 10:43:46;;;;;;;5.00;2.80;;;;;;;7.97;57.82;97069.14;106558;1254;71220;-78
2023/01/15 10:46:15;;;;;;;5.10;2.40;;;;;;;7.94;58.06;97065.98;106713;1254;71878;-78
2023/01/15 10:48:44;;;;;;;4.70;3.30;;;;;;;7.97;57.94;97069.52;106813;1252;61985;-77
2023/01/15 10:51:22;;;;;;;7.50;3.60;;;;;;;7.91;58.57;97060.23;106496;1254;60177;-76
2023/01/15 10:54:22;;;;;;;6.20;3.60;;;;;;;7.88;59.08;97061.49;106713;1253;73677;-76
2023/01/15 10:56:57;;;;;;;5.20;2.80;;;;;;;7.81;59.25;97057.48;106611;1254;69487;-76
2023/01/15 10:59:43;;;;;;;5.50;2.70;;;;;;;7.77;59.41;97038.05;106693;1255;72575;-78
2023/01/15 11:02:20;;;;;;;14.20;4.60;;;;;;;7.72;59.67;97033.40;106485;1254;59990;-78
2023/01/15 11:04:46;;;;;;;6.20;3.70;;;;;;;7.66;60.08;97031.20;106547;1257;60117;-79
2023/01/15 11:07:13;;;;;;;6.60;3.50;;;;;;;7.58;60.49;97036.70;106432;1254;59841;-78
2023/01/15 11:09:40;;;;;;;10.00;6.20;;;;;;;7.52;60.96;97029.70;106582;1254;60579;-78
2023/01/15 11:20:33;;;;;;;15.20;7.40;;;;;;;7.45;61.91;97041.95;106521;1254;73497;-77
2023/01/15 11:23:07;;;;;;;6.90;3.40;;;;;;;7.40;62.37;97043.23;106593;1254;69828;-78
2023/01/15 11:25:34;;;;;;;8.90;4.90;;;;;;;7.37;62.76;97045.57;106524;1256;72586;-78
2023/01/15 11:28:02;;;;;;;10.30;5.80;;;;;;;7.35;63.20;97064.51;106523;1256;59944;-78
2023/01/15 11:30:36;;;;;;;12.60;8.20;;;;;;;7.33;63.48;97059.77;106568;1254;60849;-78
2023/01/15 11:33:03;;;;;;;6.80;4.60;;;;;;;7.31;64.20;97066.15;106602;1256;74530;-76
2023/01/15 11:35:30;;;;;;;12.80;4.30;;;;;;;7.18;66.83;97062.59;106558;1254;71069;-76
2023/01/15 11:38:04;;;;;;;8.00;5.40;;;;;;;7.19;65.85;97067.98;106478;1254;73819;-77
2023/01/15 11:40:30;;;;;;;12.50;8.80;;;;;;;7.18;65.75;97066.96;106551;1254;61246;-78
2023/01/15 11:51:29;;;;;;;14.30;8.80;;;;;;;7.15;67.94;97046.29;106536;1255;71460;-77
2023/01/15 11:54:00;;;;;;;14.80;6.80;;;;;;;7.14;68.75;97043.98;106550;1251;59932;-77
2023/01/15 11:56:28;;;;;;;11.30;7.30;;;;;;;7.09;69.36;97035.71;106566;1254;60241;-76
2023/01/15 11:59:00;;;;;;;12.60;6.90;;;;;;;7.07;70.16;97037.73;106557;1254;74525;-78
2023/01/15 12:01:35;;;;;;;12.80;8.50;;;;;;;7.01;70.81;97037.13;106897;1254;71053;-76
2023/01/15 12:04:06;;;;;;;11.80;7.40;;;;;;;6.98;71.49;97033.52;106592;1255;70580;-76
2023/01/15 12:06:34;;;;;;;24.50;12.50;;;;;;;6.97;71.98;97031.92;106393;1254;60537;-79
2023/01/15 12:09:20;;;;;;;14.70;8.60;;;;;;;6.94;72.09;97024.73;106585;1255;60356;-77
2023/01/15 12:12:22;;;;;;;23.30;14.10;;;;;;;6.87;74.17;97017.03;106495;1258;74246;-76
2023/01/15 12:15:29;;;;;;;13.50;8.00;;;;;;;6.91;73.14;97016.55;106763;1254;71085;-78
2023/01/15 12:18:18;;;;;;;12.10;8.10;;;;;;;6.90;73.56;97011.02;106596;1253;72514;-77
2023/01/15 12:21:00;;;;;;;23.90;13.00;;;;;;;6.87;73.98;96994.67;106560;1254;59903;-77
2023/01/15 12:23:40;;;;;;;20.00;10.60;;;;;;;6.88;74.21;96981.95;106490;1254;60025;-77
2023/01/15 12:26:17;;;;;;;13.70;7.60;;;;;;;6.87;74.72;96971.13;106602;1254;73308;-79
2023/01/15 12:29:03;;;;;;;26.10;15.30;;;;;;;6.85;75.08;96958.56;106626;1254;71165;-77
2023/01/15 12:31:42;;;;;;;32.10;17.50;;;;;;;6.93;75.38;96953.26;106562;1254;72629;-76
2023/01/15 12:34:27;;;;;;;9.00;5.80;;;;;;;6.87;75.41;96952.82;106524;1253;59886;-78
2023/01/15 12:37:19;;;;;;;6.00;2.70;;;;;;;6.89;75.91;96951.72;106655;1254;60447;-77
2023/01/15 12:39:48;;;;;;;13.10;7.90;;;;;;;6.95;76.00;96947.69;106738;1254;73393;-77
2023/01/15 12:45:15;;;;;;;25.60;9.90;;;;;;;7.05;76.01;96935.27;106616;1254;72624;-78